createdAt,value
2023-01-27T00:00:03.870Z,-0.70
2023-01-27T00:03:21.409Z,-0.73
2023-01-27T00:06:27.719Z,-0.82
2023-01-27T00:09:34.421Z,-0.82
2023-01-27T00:12:56.030Z,-0.89
2023-01-27T00:16:01.434Z,-0.85
2023-01-27T00:19:10.877Z,-0.83
2023-01-27T00:22:32.078Z,-0.88
2023-01-27T00:25:38.333Z,-0.90
2023-01-27T00:28:46.338Z,-1.08
2023-01-27T00:32:08.939Z,-0.89
2023-01-27T00:35:18.332Z,-0.89
2023-01-27T00:38:24.541Z,-0.91
2023-01-27T00:41:31.788Z,-0.92
2023-01-27T00:44:38.004Z,-0.93
2023-01-27T00:47:43.629Z,-0.92
2023-01-27T00:50:52.835Z,-1.00
2023-01-27T00:53:59.453Z,-1.00
2023-01-27T00:57:05.663Z,-0.95
2023-01-27T01:00:14.605Z,-0.92
2023-01-27T01:03:21.059Z,-0.89
2023-01-27T01:06:30.667Z,-0.82
2023-01-27T01:09:37.045Z,-0.75
2023-01-27T01:12:42.601Z,-0.69
2023-01-27T01:15:49.052Z,-0.66
2023-01-27T01:18:54.733Z,-0.71
2023-01-27T01:22:05.046Z,-0.66
2023-01-27T01:25:11.653Z,-0.62
2023-01-27T01:28:17.877Z,-0.68
2023-01-27T01:31:23.983Z,-0.68
2023-01-27T01:34:30.323Z,-0.68
2023-01-27T01:37:39.654Z,-0.66
2023-01-27T01:40:47.905Z,-0.76
2023-01-27T01:43:55.133Z,-0.67
2023-01-27T01:47:02.340Z,-0.73
2023-01-27T01:50:09.482Z,-0.79
2023-01-27T01:53:19.768Z,-0.99
2023-01-27T01:56:33.799Z,-0.99
2023-01-27T01:59:47.290Z,-1.08
2023-01-27T02:02:55.794Z,-1.16
2023-01-27T02:06:03.560Z,-1.27
2023-01-27T02:09:11.755Z,-1.34
2023-01-27T02:12:17.999Z,-1.35
2023-01-27T02:15:24.517Z,-1.36
2023-01-27T02:18:33.678Z,-1.43
2023-01-27T02:21:39.210Z,-1.51
2023-01-27T02:24:58.177Z,-1.50
2023-01-27T02:28:10.829Z,-1.44
2023-01-27T02:31:17.418Z,-1.41
2023-01-27T02:34:33.654Z,-1.39
2023-01-27T02:37:43.803Z,-1.42
2023-01-27T02:40:57.193Z,-1.40
2023-01-27T02:44:07.119Z,-1.38
2023-01-27T02:47:13.439Z,-1.35
2023-01-27T02:50:20.887Z,-1.33
2023-01-27T02:53:26.283Z,-1.33
2023-01-27T02:56:35.658Z,-1.31
2023-01-27T02:59:44.560Z,-1.31
2023-01-27T03:02:50.803Z,-1.31
2023-01-27T03:05:56.167Z,-1.36
2023-01-27T03:09:02.416Z,-1.40
2023-01-27T03:12:23.278Z,-1.37
2023-01-27T03:15:49.518Z,-1.30
2023-01-27T03:18:56.632Z,-1.28
2023-01-27T03:22:03.387Z,-1.25
2023-01-27T03:25:13.104Z,-1.24
2023-01-27T03:28:20.171Z,-1.18
2023-01-27T03:31:41.118Z,-1.14
2023-01-27T03:34:47.652Z,-1.16
2023-01-27T03:38:19.730Z,-1.17
2023-01-27T03:41:41.725Z,-1.14
2023-01-27T03:45:03.309Z,-1.05
2023-01-27T03:48:12.951Z,-1.00
2023-01-27T03:51:19.169Z,-0.96
2023-01-27T03:54:25.637Z,-0.94
2023-01-27T03:57:31.031Z,-0.93
2023-01-27T04:00:37.263Z,-0.89
2023-01-27T04:04:02.272Z,-0.81
2023-01-27T04:07:08.973Z,-0.75
2023-01-27T04:10:15.106Z,-0.69
2023-01-27T04:13:18.507Z,-0.72
2023-01-27T04:16:29.089Z,-0.71
2023-01-27T04:19:38.077Z,-0.72
2023-01-27T04:22:43.596Z,-0.58
2023-01-27T04:25:50.700Z,-0.57
2023-01-27T04:28:56.091Z,-0.62
2023-01-27T04:32:03.698Z,-0.69
2023-01-27T04:35:12.612Z,-0.78
2023-01-27T04:38:19.240Z,-0.83
2023-01-27T04:41:24.912Z,-0.91
2023-01-27T04:44:31.199Z,-0.95
2023-01-27T04:47:36.660Z,-1.02
2023-01-27T04:50:46.091Z,-1.18
2023-01-27T04:53:51.492Z,-1.23
2023-01-27T04:57:03.704Z,-1.31
2023-01-27T05:00:10.968Z,-1.36
2023-01-27T05:03:17.214Z,-1.39
2023-01-27T05:06:26.517Z,-1.44
2023-01-27T05:09:33.056Z,-1.50
2023-01-27T05:12:38.659Z,-1.66
2023-01-27T05:15:44.907Z,-1.78
2023-01-27T05:18:52.859Z,-1.85
2023-01-27T05:22:01.862Z,-1.93
2023-01-27T05:25:08.240Z,-1.96
2023-01-27T05:28:14.925Z,-2.00
2023-01-27T05:31:23.978Z,-2.02
2023-01-27T05:34:30.371Z,-1.96
2023-01-27T05:37:38.541Z,-1.92
2023-01-27T05:40:44.820Z,-1.87
2023-01-27T05:43:56.083Z,-1.89
2023-01-27T05:47:02.347Z,-1.97
2023-01-27T05:50:09.203Z,-1.93
2023-01-27T05:53:18.800Z,-1.94
2023-01-27T05:56:27.094Z,-2.02
2023-01-27T05:59:33.316Z,-2.04
2023-01-27T06:02:38.976Z,-1.99
2023-01-27T06:05:59.667Z,-2.06
2023-01-27T06:09:09.263Z,-2.22
2023-01-27T06:12:15.592Z,-2.28
2023-01-27T06:15:21.024Z,-2.35
2023-01-27T06:18:36.531Z,-2.35
2023-01-27T06:21:42.436Z,-2.34
2023-01-27T06:24:51.462Z,-2.32
2023-01-27T06:27:57.979Z,-2.56
2023-01-27T06:31:12.352Z,-2.51
2023-01-27T06:34:17.786Z,-2.48
2023-01-27T06:37:24.009Z,-2.43
2023-01-27T06:40:35.745Z,-2.47
2023-01-27T06:43:42.230Z,-2.48
2023-01-27T06:46:47.654Z,-2.45
2023-01-27T06:49:54.100Z,-2.43
2023-01-27T06:53:05.460Z,-2.40
2023-01-27T06:56:16.461Z,-2.51
2023-01-27T06:59:22.843Z,-2.57
2023-01-27T07:02:29.368Z,-2.63
2023-01-27T07:05:36.473Z,-2.69
2023-01-27T07:08:42.800Z,-2.71
2023-01-27T07:11:52.047Z,-2.73
2023-01-27T07:14:58.362Z,-2.67
2023-01-27T07:18:05.541Z,-2.63
2023-01-27T07:21:12.852Z,-2.79
2023-01-27T07:24:19.310Z,-2.74
2023-01-27T07:27:29.669Z,-2.76
2023-01-27T07:30:37.713Z,-2.69
2023-01-27T07:33:44.054Z,-2.55
2023-01-27T07:36:49.626Z,-2.44
2023-01-27T07:39:56.428Z,-2.29
2023-01-27T07:43:06.048Z,-2.29
2023-01-27T07:46:14.097Z,-2.23
2023-01-27T07:49:19.571Z,-2.12
2023-01-27T07:52:25.782Z,-2.12
2023-01-27T07:55:31.983Z,-2.17
2023-01-27T07:58:41.909Z,-2.21
2023-01-27T08:01:48.354Z,-2.21
2023-01-27T08:04:55.228Z,-2.30
2023-01-27T08:08:04.111Z,-2.41
2023-01-27T08:11:15.144Z,-2.55
2023-01-27T08:14:23.397Z,-2.30
2023-01-27T08:17:29.672Z,-2.19
2023-01-27T08:20:35.456Z,-2.34
2023-01-27T08:23:41.763Z,-2.41
2023-01-27T08:26:47.586Z,-2.45
2023-01-27T08:29:56.897Z,-2.46
2023-01-27T08:33:02.486Z,-2.58
2023-01-27T08:36:13.184Z,-2.53
2023-01-27T08:39:18.603Z,-2.46
2023-01-27T08:42:25.086Z,-2.39
2023-01-27T08:45:33.383Z,-2.26
2023-01-27T08:48:40.814Z,-2.17
2023-01-27T08:51:47.221Z,-2.12
2023-01-27T08:54:53.495Z,-2.22
2023-01-27T08:57:59.357Z,-2.20
2023-01-27T09:01:10.975Z,-2.17
2023-01-27T09:04:16.435Z,-2.11
2023-01-27T09:07:23.090Z,-2.09
2023-01-27T09:10:28.510Z,-2.00
2023-01-27T09:13:34.740Z,-1.87
2023-01-27T09:16:43.394Z,-1.88
2023-01-27T09:19:50.393Z,-1.86
2023-01-27T09:22:58.733Z,-1.92
2023-01-27T09:26:04.957Z,-1.92
2023-01-27T09:29:10.315Z,-1.87
2023-01-27T09:32:19.559Z,-1.85
2023-01-27T09:35:25.012Z,-1.84
2023-01-27T09:38:41.031Z,-2.09
2023-01-27T09:42:22.445Z,-1.82
2023-01-27T09:46:01.946Z,-1.75
2023-01-27T09:49:37.433Z,-1.69
2023-01-27T09:53:58.565Z,-1.60
2023-01-27T09:57:21.241Z,-1.50
2023-01-27T10:00:53.324Z,-1.43
2023-01-27T10:04:29.216Z,-1.39
2023-01-27T10:08:02.580Z,-1.42
2023-01-27T10:11:24.455Z,-1.42
2023-01-27T10:14:48.463Z,-1.37
2023-01-27T10:18:37.686Z,-1.32
2023-01-27T10:22:09.454Z,-1.26
2023-01-27T10:25:37.064Z,-1.29
2023-01-27T10:28:54.135Z,-1.17
2023-01-27T10:32:29.948Z,-1.04
2023-01-27T10:35:53.499Z,-0.90
2023-01-27T10:39:24.923Z,-0.86
2023-01-27T10:42:45.024Z,-0.77
2023-01-27T10:46:02.974Z,-0.80
2023-01-27T10:49:23.496Z,-1.33
2023-01-27T10:52:39.275Z,-0.78
2023-01-27T10:56:04.259Z,-1.09
2023-01-27T10:59:25.493Z,-0.88
2023-01-27T11:02:43.911Z,-0.97
2023-01-27T11:05:56.392Z,-1.02
2023-01-27T11:09:17.288Z,-1.00
2023-01-27T11:12:35.295Z,-1.05
2023-01-27T11:15:41.944Z,-0.96
2023-01-27T11:18:52.347Z,-0.84
2023-01-27T11:22:07.845Z,-0.77
2023-01-27T11:25:30.699Z,-0.70
2023-01-27T11:28:54.650Z,-0.72
2023-01-27T11:32:11.595Z,-0.66
2023-01-27T11:35:19.846Z,-1.51
2023-01-27T11:38:27.408Z,-0.67
2023-01-27T11:41:40.401Z,-0.56
2023-01-27T11:44:49.371Z,-0.70
2023-01-27T11:48:03.505Z,-0.73
2023-01-27T11:51:15.387Z,-0.79
2023-01-27T11:54:28.844Z,-0.76
2023-01-27T11:57:34.291Z,-0.73
2023-01-27T12:00:50.589Z,-0.63
2023-01-27T12:04:07.992Z,-0.61
2023-01-27T12:07:24.970Z,-0.68
2023-01-27T12:10:35.307Z,-0.75
2023-01-27T12:13:53.355Z,-0.86
2023-01-27T12:17:07.165Z,-0.88
2023-01-27T12:20:40.128Z,-0.87
2023-01-27T12:23:57.096Z,-0.86
2023-01-27T12:27:07.545Z,-0.95
2023-01-27T12:30:26.998Z,-0.93
2023-01-27T12:33:40.815Z,-0.98
2023-01-27T12:36:48.422Z,-1.23
2023-01-27T12:40:03.394Z,-1.08
2023-01-27T12:43:19.054Z,-1.20
2023-01-27T12:46:29.238Z,-1.25
2023-01-27T12:49:44.814Z,-1.22
2023-01-27T12:53:06.253Z,-1.19
2023-01-27T12:56:18.160Z,-1.22
2023-01-27T12:59:28.447Z,-1.33
2023-01-27T13:02:37.295Z,-1.32
2023-01-27T13:05:47.189Z,-1.39
2023-01-27T13:08:56.492Z,-1.58
2023-01-27T13:12:19.507Z,-1.48
2023-01-27T13:15:29.628Z,-1.51
2023-01-27T13:18:41.146Z,-1.68
2023-01-27T13:21:56.173Z,-1.54
2023-01-27T13:25:06.656Z,-1.54
2023-01-27T13:28:24.756Z,-1.54
2023-01-27T13:31:49.106Z,-1.44
2023-01-27T13:35:07.973Z,-1.30
2023-01-27T13:38:29.470Z,-1.31
2023-01-27T13:41:48.886Z,-1.10
2023-01-27T13:45:06.006Z,-1.11
2023-01-27T13:48:24.052Z,-1.12
2023-01-27T13:51:34.095Z,-1.25
2023-01-27T13:54:42.974Z,-1.37
2023-01-27T13:58:06.642Z,-1.39
2023-01-27T14:01:28.197Z,-1.48
2023-01-27T14:05:02.548Z,-1.53
2023-01-27T14:08:38.942Z,-1.50
2023-01-27T14:12:02.541Z,-1.47
2023-01-27T14:15:30.100Z,-1.47
2023-01-27T14:18:45.328Z,-1.66
2023-01-27T14:22:04.296Z,-1.65
2023-01-27T14:25:29.285Z,-1.64
2023-01-27T14:28:58.783Z,-1.62
2023-01-27T14:32:26.436Z,-1.72
2023-01-27T14:35:48.806Z,-1.66
2023-01-27T14:39:10.248Z,-1.66
2023-01-27T14:42:30.990Z,-1.67
2023-01-27T14:45:43.908Z,-1.70
2023-01-27T14:49:11.666Z,-1.70
2023-01-27T14:52:42.078Z,-1.65
2023-01-27T14:56:03.050Z,-1.84
2023-01-27T14:59:29.825Z,-1.83
2023-01-27T15:03:03.673Z,-1.80
2023-01-27T15:06:26.158Z,-1.70
2023-01-27T15:10:05.155Z,-1.61
2023-01-27T15:13:56.520Z,-1.67
2023-01-27T15:17:33.630Z,-1.63
2023-01-27T15:21:14.520Z,-1.66
2023-01-27T15:24:51.091Z,-1.69
2023-01-27T15:27:59.929Z,-1.69
2023-01-27T15:31:25.064Z,-1.68
2023-01-27T15:34:31.365Z,-1.59
2023-01-27T15:38:01.169Z,-1.65
2023-01-27T15:41:17.919Z,-1.65
2023-01-27T15:44:33.419Z,-1.53
2023-01-27T15:47:40.737Z,-1.57
2023-01-27T15:50:53.060Z,-1.60
2023-01-27T15:54:04.327Z,-1.70
2023-01-27T15:57:26.871Z,-1.64
2023-01-27T16:00:41.288Z,-1.58
2023-01-27T16:03:53.390Z,-1.59
2023-01-27T16:07:05.707Z,-1.53
2023-01-27T16:10:25.778Z,-1.53
2023-01-27T16:13:33.910Z,-1.56
2023-01-27T16:16:39.296Z,-1.61
2023-01-27T16:19:57.971Z,-1.65
2023-01-27T16:23:27.969Z,-1.57
2023-01-27T16:26:49.464Z,-1.66
2023-01-27T16:30:02.110Z,-1.68
2023-01-27T16:33:19.119Z,-1.87
2023-01-27T16:36:31.392Z,-1.85
2023-01-27T16:39:49.618Z,-1.89
2023-01-27T16:43:09.224Z,-1.91
2023-01-27T16:46:34.804Z,-1.84
2023-01-27T16:49:44.554Z,-1.84
2023-01-27T16:52:51.572Z,-1.86
2023-01-27T16:56:03.523Z,-1.79
2023-01-27T16:59:26.885Z,-1.81
2023-01-27T17:02:34.999Z,-1.89
2023-01-27T17:05:43.380Z,-1.86
2023-01-27T17:08:51.153Z,-1.85
2023-01-27T17:11:58.783Z,-1.78
2023-01-27T17:15:24.220Z,-1.76
2023-01-27T17:18:40.386Z,-1.78
2023-01-27T17:21:59.164Z,-1.77
2023-01-27T17:25:09.649Z,-1.76
2023-01-27T17:28:26.682Z,-1.85
2023-01-27T17:31:41.462Z,-1.84
2023-01-27T17:34:47.274Z,-1.86
2023-01-27T17:37:54.553Z,-1.87
2023-01-27T17:40:59.959Z,-1.82
2023-01-27T17:44:14.896Z,-1.77
2023-01-27T17:47:25.506Z,-1.74
2023-01-27T17:50:40.989Z,-1.81
2023-01-27T17:53:46.600Z,-1.75
2023-01-27T17:57:04.557Z,-1.75
2023-01-27T18:00:13.790Z,-1.78
2023-01-27T18:03:28.572Z,-1.74
2023-01-27T18:06:34.065Z,-1.70
2023-01-27T18:09:49.569Z,-1.70
2023-01-27T18:12:55.938Z,-1.68
2023-01-27T18:16:05.162Z,-1.67
2023-01-27T18:19:25.665Z,-1.68
2023-01-27T18:22:32.238Z,-1.72
2023-01-27T18:25:37.680Z,-1.74
2023-01-27T18:28:46.689Z,-1.76
2023-01-27T18:31:57.647Z,-1.79
2023-01-27T18:35:25.223Z,-1.77
2023-01-27T18:38:36.129Z,-1.74
2023-01-27T18:41:50.287Z,-1.83
2023-01-27T18:44:57.188Z,-1.80
2023-01-27T18:48:04.361Z,-1.81
2023-01-27T18:51:18.801Z,-1.73
2023-01-27T18:54:25.689Z,-1.74
2023-01-27T18:57:32.103Z,-1.78
2023-01-27T19:00:45.965Z,-1.91
2023-01-27T19:03:52.719Z,-2.06
2023-01-27T19:07:02.079Z,-2.02
2023-01-27T19:10:16.500Z,-2.01
2023-01-27T19:13:23.856Z,-1.94
2023-01-27T19:16:33.767Z,-1.99
2023-01-27T19:19:40.180Z,-1.96
2023-01-27T19:22:48.778Z,-1.91
2023-01-27T19:26:00.195Z,-1.87
2023-01-27T19:29:06.300Z,-1.86
2023-01-27T19:32:17.063Z,-1.80
2023-01-27T19:35:22.827Z,-1.74
2023-01-27T19:38:33.672Z,-1.99
2023-01-27T19:41:39.114Z,-1.87
2023-01-27T19:44:45.530Z,-1.88
2023-01-27T19:47:53.113Z,-1.98
2023-01-27T19:50:59.347Z,-2.01
2023-01-27T19:54:10.124Z,-1.99
2023-01-27T19:57:20.478Z,-2.12
2023-01-27T20:00:30.593Z,-2.19
2023-01-27T20:03:37.048Z,-2.03
2023-01-27T20:06:42.643Z,-2.00
2023-01-27T20:09:51.681Z,-2.10
2023-01-27T20:13:00.843Z,-2.11
2023-01-27T20:16:08.102Z,-2.13
2023-01-27T20:19:15.197Z,-2.12
2023-01-27T20:22:21.779Z,-2.09
2023-01-27T20:25:31.697Z,-2.15
2023-01-27T20:28:38.220Z,-2.14
2023-01-27T20:31:44.066Z,-2.16
2023-01-27T20:34:50.403Z,-2.12
2023-01-27T20:37:57.878Z,-2.12
2023-01-27T20:41:14.224Z,-2.09
2023-01-27T20:44:19.904Z,-2.08
2023-01-27T20:47:26.263Z,-2.08
2023-01-27T20:50:32.139Z,-2.01
2023-01-27T20:53:45.542Z,-1.95
2023-01-27T20:57:30.544Z,-1.98
2023-01-27T21:00:44.635Z,-1.92
2023-01-27T21:03:51.538Z,-1.86
2023-01-27T21:06:57.867Z,-1.85
2023-01-27T21:10:03.430Z,-1.87
2023-01-27T21:13:12.604Z,-1.86
2023-01-27T21:16:18.657Z,-1.83
2023-01-27T21:19:24.968Z,-1.80
2023-01-27T21:22:30.362Z,-1.76
2023-01-27T21:25:40.118Z,-1.76
2023-01-27T21:28:48.320Z,-1.79
2023-01-27T21:31:54.639Z,-1.81
2023-01-27T21:34:59.990Z,-1.83
2023-01-27T21:38:06.647Z,-1.86
2023-01-27T21:41:37.181Z,-1.89
2023-01-27T21:45:01.746Z,-1.88
2023-01-27T21:48:08.290Z,-1.87
2023-01-27T21:51:14.576Z,-1.83
2023-01-27T21:54:19.914Z,-1.81
2023-01-27T21:57:26.143Z,-1.78
2023-01-27T22:00:34.358Z,-1.78
2023-01-27T22:03:41.633Z,-1.86
2023-01-27T22:06:47.236Z,-1.79
2023-01-27T22:09:53.882Z,-1.86
2023-01-27T22:13:03.712Z,-1.95
2023-01-27T22:16:17.051Z,-1.91
2023-01-27T22:19:22.919Z,-1.89
2023-01-27T22:22:29.205Z,-1.91
2023-01-27T22:25:34.591Z,-1.91
2023-01-27T22:28:40.807Z,-1.88
2023-01-27T22:31:49.299Z,-1.81
2023-01-27T22:34:55.539Z,-1.77
2023-01-27T22:38:02.205Z,-1.70
2023-01-27T22:41:09.068Z,-1.67
2023-01-27T22:44:16.795Z,-1.70
2023-01-27T22:47:25.876Z,-1.79
2023-01-27T22:50:31.379Z,-1.87
2023-01-27T22:53:37.712Z,-1.88
2023-01-27T22:56:43.383Z,-1.84
2023-01-27T22:59:49.652Z,-1.81
2023-01-27T23:02:57.925Z,-1.77
2023-01-27T23:06:07.954Z,-1.75
2023-01-27T23:09:15.156Z,-1.69
2023-01-27T23:12:21.628Z,-1.71
2023-01-27T23:15:27.025Z,-1.70
2023-01-27T23:18:36.056Z,-1.68
2023-01-27T23:21:42.066Z,-1.63
2023-01-27T23:24:48.338Z,-1.60
2023-01-27T23:27:53.896Z,-1.58
2023-01-27T23:31:00.258Z,-1.54
2023-01-27T23:34:08.955Z,-1.56
2023-01-27T23:37:15.185Z,-1.53
2023-01-27T23:40:21.587Z,-1.53
2023-01-27T23:43:28.487Z,-1.52
2023-01-27T23:46:34.032Z,-1.52
2023-01-27T23:49:43.120Z,-1.52
2023-01-27T23:52:48.729Z,-1.57
2023-01-27T23:56:00.952Z,-1.68
2023-01-27T23:59:06.509Z,-1.65
